Time;durP1;ratioP1;P1;durP2;ratioP2;P2;SDS_P1;SDS_P2;PMS_P1;PMS_P2;Temp;Humidity;BMP_temperature;BMP_pressure;BME280_temperature;BME280_humidity;BME280_pressure;Samples;Min_cycle;Max_cycle;Signal;HPM_P1;HPM_P2
2023/06/04 00:00:46;;;;;;;10.48;4.68;;;9.20;99.90;;;;;;5094460;28;20066;-59
2023/06/04 00:03:12;;;;;;;10.70;4.90;;;9.30;99.90;;;;;;5075973;28;20116;-58
2023/06/04 00:05:38;;;;;;;12.48;4.82;;;9.80;99.90;;;;;;5093420;28;20052;-59
2023/06/04 00:08:04;;;;;;;9.85;4.90;;;9.20;99.90;;;;;;5094704;28;20039;-59
2023/06/04 00:10:31;;;;;;;10.93;4.65;;;9.10;99.90;;;;;;5096003;28;20036;-59
2023/06/04 00:12:56;;;;;;;9.93;4.50;;;9.00;99.90;;;;;;5093177;28;21463;-59
2023/06/04 00:15:22;;;;;;;10.30;4.30;;;8.80;99.90;;;;;;5095499;28;20051;-60
2023/06/04 00:17:48;;;;;;;10.48;4.60;;;9.10;99.90;;;;;;5076645;28;20561;-59
2023/06/04 00:20:14;;;;;;;11.90;4.13;;;8.90;99.90;;;;;;5094105;28;20118;-59
2023/06/04 00:22:41;;;;;;;8.80;4.00;;;8.90;99.90;;;;;;5092936;28;20127;-59
2023/06/04 00:25:09;;;;;;;8.15;3.80;;;8.80;99.90;;;;;;5093948;28;20174;-59
2023/06/04 00:27:35;;;;;;;9.70;4.38;;;8.80;99.90;;;;;;5074782;28;20420;-58
2023/06/04 00:30:01;;;;;;;12.80;4.28;;;8.80;99.90;;;;;;5074259;28;20180;-59
2023/06/04 00:32:27;;;;;;;13.55;4.10;;;8.70;99.90;;;;;;5092400;28;20044;-59
2023/06/04 00:34:55;;;;;;;7.47;3.70;;;8.60;99.90;;;;;;5091951;28;20046;-59
2023/06/04 00:37:24;;;;;;;8.48;4.78;;;9.50;99.90;;;;;;5093945;28;20051;-59
2023/06/04 00:39:50;;;;;;;11.68;4.57;;;9.40;99.90;;;;;;5091681;28;20111;-59
2023/06/04 00:42:17;;;;;;;11.10;4.43;;;9.80;99.90;;;;;;5072685;28;20104;-59
2023/06/04 00:44:44;;;;;;;8.73;4.25;;;8.40;99.90;;;;;;5092052;28;20059;-59
2023/06/04 00:47:13;;;;;;;11.68;4.75;;;9.90;99.90;;;;;;5093055;28;20052;-59
2023/06/04 00:49:39;;;;;;;11.68;5.78;;;8.50;99.90;;;;;;5093162;28;20130;-60
2023/06/04 00:52:05;;;;;;;11.35;4.30;;;8.40;99.90;;;;;;5073228;28;20518;-59
2023/06/04 00:54:33;;;;;;;11.40;4.97;;;7.40;99.90;;;;;;5092260;28;20032;-59
2023/06/04 00:56:59;;;;;;;8.93;4.00;;;8.60;99.90;;;;;;5092500;28;20839;-60
2023/06/04 00:59:25;;;;;;;7.38;3.75;;;8.80;99.90;;;;;;5092908;28;20100;-59
2023/06/04 01:02:01;;;;;;;11.77;4.15;;;8.40;99.90;;;;;;5091510;28;20043;-59
2023/06/04 01:04:39;;;;;;;10.18;4.15;;;8.30;99.90;;;;;;5092813;28;20305;-59
2023/06/04 01:07:08;;;;;;;9.88;4.07;;;8.30;99.90;;;;;;5073981;28;20503;-59
2023/06/04 01:09:36;;;;;;;8.02;3.45;;;8.30;99.90;;;;;;5090771;28;20153;-60
2023/06/04 01:12:04;;;;;;;7.93;4.10;;;8.90;99.90;;;;;;5093543;28;20140;-59
2023/06/04 01:14:30;;;;;;;6.05;3.55;;;8.30;99.90;;;;;;5092992;28;20098;-59
2023/06/04 01:17:02;;;;;;;6.97;3.05;;;8.10;99.90;;;;;;5092273;28;20044;-59
2023/06/04 01:19:41;;;;;;;6.65;3.80;;;8.20;99.90;;;;;;5091262;28;20047;-59
2023/06/04 01:22:20;;;;;;;7.25;3.88;;;7.80;99.90;;;;;;5093665;28;20083;-59
2023/06/04 01:24:55;;;;;;;10.73;4.88;;;7.90;99.90;;;;;;5093689;28;20206;-60
2023/06/04 01:27:22;;;;;;;6.53;4.10;;;7.90;99.90;;;;;;5072678;28;20496;-59
2023/06/04 01:29:49;;;;;;;10.20;3.88;;;8.10;99.90;;;;;;5070324;28;20496;-59
2023/06/04 01:32:16;;;;;;;9.27;3.95;;;8.00;99.90;;;;;;5074305;28;20043;-59
2023/06/04 01:34:46;;;;;;;9.95;4.45;;;8.00;99.90;;;;;;5093606;28;20039;-59
2023/06/04 01:37:13;;;;;;;8.68;4.82;;;8.70;99.90;;;;;;5091906;28;20694;-59
2023/06/04 01:39:38;;;;;;;15.88;5.45;;;7.80;99.90;;;;;;5072460;28;20039;-59
2023/06/04 01:42:05;;;;;;;12.13;5.47;;;7.90;99.90;;;;;;5092037;28;20624;-59
2023/06/04 01:44:30;;;;;;;12.85;4.60;;;7.70;99.90;;;;;;5093111;28;20112;-59
2023/06/04 01:46:56;;;;;;;10.15;4.60;;;7.70;99.90;;;;;;5091824;28;20068;-59
2023/06/04 01:49:22;;;;;;;12.77;4.90;;;7.80;99.90;;;;;;5091616;28;20051;-58
2023/06/04 01:51:48;;;;;;;9.00;4.00;;;8.70;99.90;;;;;;5090704;28;20044;-59
2023/06/04 01:54:13;;;;;;;6.68;4.00;;;7.80;99.90;;;;;;5091908;28;20173;-59
2023/06/04 01:56:39;;;;;;;7.18;3.80;;;7.40;99.90;;;;;;5089822;28;20055;-59
2023/06/04 01:59:05;;;;;;;7.90;4.40;;;7.60;99.90;;;;;;5091532;28;20047;-58
2023/06/04 02:01:30;;;;;;;9.23;4.47;;;7.70;99.90;;;;;;5072185;28;20437;-59
2023/06/04 02:03:56;;;;;;;10.38;4.40;;;7.70;99.90;;;;;;5089871;28;20096;-59
2023/06/04 02:06:24;;;;;;;8.38;3.85;;;9.70;99.90;;;;;;5092030;28;20085;-59
2023/06/04 02:08:50;;;;;;;6.45;3.40;;;8.20;99.90;;;;;;5073538;28;20066;-59
2023/06/04 02:11:16;;;;;;;5.43;2.97;;;7.70;99.90;;;;;;5091000;28;20413;-59
2023/06/04 02:13:41;;;;;;;6.78;3.45;;;7.60;99.90;;;;;;5072970;28;20054;-59
2023/06/04 02:16:07;;;;;;;5.18;2.90;;;7.80;99.90;;;;;;5090310;28;20140;-59
2023/06/04 02:18:33;;;;;;;5.63;3.13;;;7.70;99.90;;;;;;5073991;28;20040;-59
2023/06/04 02:20:59;;;;;;;5.90;3.00;;;7.50;99.90;;;;;;5089677;28;20466;-59
2023/06/04 02:23:25;;;;;;;6.53;2.92;;;7.40;99.90;;;;;;5091138;28;20047;-60
2023/06/04 02:25:50;;;;;;;4.40;2.45;;;7.50;99.90;;;;;;5090982;28;20087;-59
2023/06/04 02:28:16;;;;;;;6.50;2.60;;;7.30;99.90;;;;;;5090742;28;20044;-60
2023/06/04 02:30:45;;;;;;;4.15;2.40;;;9.40;99.90;;;;;;5090859;28;20456;-59
2023/06/04 02:33:10;;;;;;;6.72;2.50;;;8.50;99.90;;;;;;5090193;28;20043;-59
2023/06/04 02:35:37;;;;;;;3.72;2.10;;;7.90;99.90;;;;;;5089815;28;21005;-59
2023/06/04 02:38:02;;;;;;;5.93;2.42;;;7.70;99.90;;;;;;5090677;28;20058;-59
2023/06/04 02:40:29;;;;;;;5.38;2.28;;;7.20;99.90;;;;;;5090134;28;20031;-59
2023/06/04 02:42:55;;;;;;;4.72;2.15;;;8.40;99.90;;;;;;5090612;28;21077;-59
2023/06/04 02:45:22;;;;;;;4.55;2.00;;;7.30;99.90;;;;;;5089019;28;20074;-59
2023/06/04 02:47:48;;;;;;;4.53;1.88;;;6.60;99.90;;;;;;5091468;28;21081;-59
2023/06/04 02:50:17;;;;;;;4.82;1.90;;;8.80;99.90;;;;;;5090255;28;20120;-59
2023/06/04 02:52:43;;;;;;;5.13;2.17;;;7.20;99.90;;;;;;5091200;28;20051;-59
2023/06/04 02:55:12;;;;;;;5.88;2.60;;;7.20;99.90;;;;;;5068387;28;20031;-59
2023/06/04 02:57:40;;;;;;;4.93;2.25;;;7.10;99.90;;;;;;5092060;28;20043;-59
2023/06/04 03:00:16;;;;;;;5.63;2.45;;;8.90;99.90;;;;;;5091044;28;20040;-60
2023/06/04 03:02:43;;;;;;;6.10;2.60;;;7.20;99.90;;;;;;5067475;28;20055;-59
2023/06/04 03:05:10;;;;;;;5.82;3.15;;;7.10;99.90;;;;;;5090379;28;20524;-60
2023/06/04 03:07:37;;;;;;;6.07;3.08;;;7.30;99.90;;;;;;5091587;28;20119;-60
2023/06/04 03:10:04;;;;;;;8.73;2.90;;;6.80;99.90;;;;;;5090229;28;20082;-59
2023/06/04 03:12:30;;;;;;;5.28;2.50;;;7.00;99.90;;;;;;5091522;28;20101;-59
2023/06/04 03:14:56;;;;;;;5.65;2.70;;;8.10;99.90;;;;;;5089783;28;20044;-60
2023/06/04 03:17:21;;;;;;;5.47;3.30;;;6.90;99.90;;;;;;5092399;28;20905;-60
2023/06/04 03:19:48;;;;;;;6.70;2.92;;;6.80;99.90;;;;;;5091137;28;20039;-60
2023/06/04 03:22:14;;;;;;;6.15;2.80;;;6.70;99.90;;;;;;5090541;28;20417;-61
2023/06/04 03:24:41;;;;;;;5.93;3.10;;;7.10;99.90;;;;;;5090844;28;20043;-61
2023/06/04 03:27:09;;;;;;;9.18;3.10;;;7.20;99.90;;;;;;5091027;28;20051;-61
2023/06/04 03:29:35;;;;;;;5.45;2.85;;;7.40;99.90;;;;;;5089082;28;20128;-61
2023/06/04 03:32:02;;;;;;;6.32;3.35;;;7.00;99.90;;;;;;5090090;28;20046;-60
2023/06/04 03:34:31;;;;;;;7.65;3.33;;;7.00;99.90;;;;;;5089447;28;20096;-61
2023/06/04 03:36:57;;;;;;;7.18;2.88;;;8.40;99.90;;;;;;5089250;28;20685;-61
2023/06/04 03:39:23;;;;;;;6.18;3.35;;;7.10;99.90;;;;;;5090293;28;20044;-61
2023/06/04 03:41:49;;;;;;;6.70;3.88;;;7.00;99.90;;;;;;5089893;28;20032;-60
2023/06/04 03:44:16;;;;;;;5.47;2.65;;;8.50;99.90;;;;;;5070449;28;20055;-61
2023/06/04 03:46:42;;;;;;;5.60;2.60;;;7.80;99.90;;;;;;5091233;28;20055;-62
2023/06/04 03:49:10;;;;;;;7.57;2.53;;;7.10;99.90;;;;;;5090946;28;20054;-60
2023/06/04 03:51:36;;;;;;;6.53;2.63;;;7.00;99.90;;;;;;5089104;28;20039;-61
2023/06/04 03:54:02;;;;;;;6.82;3.08;;;8.70;99.90;;;;;;5069955;28;20412;-60
2023/06/04 03:56:28;;;;;;;4.68;2.50;;;7.00;99.90;;;;;;5090258;28;20036;-59
2023/06/04 03:58:54;;;;;;;7.32;3.50;;;6.90;99.90;;;;;;5088529;28;20043;-60
2023/06/04 04:01:20;;;;;;;5.72;2.97;;;7.40;99.90;;;;;;5071015;28;20044;-61
2023/06/04 04:03:49;;;;;;;10.68;4.20;;;7.40;99.90;;;;;;5088690;28;20036;-61
2023/06/04 04:06:15;;;;;;;7.82;4.35;;;7.50;99.90;;;;;;5088516;28;20040;-60
2023/06/04 04:08:44;;;;;;;9.13;4.13;;;7.60;99.90;;;;;;5090926;28;20070;-60
2023/06/04 04:11:14;;;;;;;8.13;4.60;;;5.90;99.90;;;;;;5090486;28;20044;-60
2023/06/04 04:13:40;;;;;;;7.97;4.55;;;8.50;99.90;;;;;;5091853;28;20035;-60
2023/06/04 04:16:05;;;;;;;7.05;4.72;;;9.10;99.90;;;;;;5092074;28;20070;-60
2023/06/04 04:18:35;;;;;;;8.20;4.60;;;8.00;99.90;;;;;;5073580;28;20496;-60
2023/06/04 04:21:03;;;;;;;7.70;5.20;;;8.20;99.90;;;;;;5092220;28;20535;-59
2023/06/04 04:23:30;;;;;;;8.40;5.97;;;8.40;99.90;;;;;;5094408;28;20510;-60
2023/06/04 04:25:58;;;;;;;10.38;6.53;;;8.50;99.90;;;;;;5093794;28;20047;-60
2023/06/04 04:28:28;;;;;;;12.57;6.72;;;8.30;99.90;;;;;;5094547;28;20516;-60
2023/06/04 04:30:56;;;;;;;11.77;6.38;;;8.70;99.90;;;;;;5074558;28;20051;-60
2023/06/04 04:33:24;;;;;;;10.48;6.75;;;8.60;99.90;;;;;;5093786;28;20036;-60
2023/06/04 04:35:50;;;;;;;9.52;5.50;;;8.60;99.90;;;;;;5091823;28;20408;-60
2023/06/04 04:38:19;;;;;;;7.20;5.18;;;8.80;99.90;;;;;;5094412;28;20280;-60
2023/06/04 04:40:48;;;;;;;14.07;6.80;;;8.90;99.90;;;;;;5093648;28;20043;-59
2023/06/04 04:43:14;;;;;;;13.20;7.22;;;9.10;99.90;;;;;;5094881;28;20044;-60
2023/06/04 04:45:39;;;;;;;11.55;6.95;;;10.50;99.90;;;;;;5092330;28;20048;-60
2023/06/04 04:48:05;;;;;;;17.63;7.65;;;9.40;99.90;;;;;;5092527;28;21281;-61
2023/06/04 04:50:31;;;;;;;19.35;8.05;;;9.40;99.90;;;;;;5092168;28;20032;-59
2023/06/04 04:52:58;;;;;;;14.30;7.32;;;9.40;99.90;;;;;;5091798;28;20092;-59
2023/06/04 04:55:24;;;;;;;13.60;7.82;;;9.50;99.90;;;;;;5074639;28;20051;-60
2023/06/04 04:57:50;;;;;;;12.20;7.20;;;9.80;99.90;;;;;;5094322;28;20047;-60
2023/06/04 05:00:17;;;;;;;15.05;8.02;;;9.80;99.90;;;;;;5089949;28;20035;-58
2023/06/04 05:02:42;;;;;;;13.68;7.32;;;9.90;99.90;;;;;;5090125;28;20043;-58
2023/06/04 05:05:10;;;;;;;15.00;7.80;;;10.00;99.90;;;;;;5090986;28;20040;-58
2023/06/04 05:07:36;;;;;;;15.80;8.30;;;10.10;99.90;;;;;;5092503;28;20039;-58
2023/06/04 05:10:02;;;;;;;13.88;8.40;;;9.80;99.90;;;;;;5091739;28;20054;-59
2023/06/04 05:12:30;;;;;;;11.13;7.18;;;10.30;99.90;;;;;;5093102;28;20039;-58
2023/06/04 05:14:56;;;;;;;15.80;7.97;;;10.60;99.90;;;;;;5092193;28;20169;-59
2023/06/04 05:17:29;;;;;;;12.07;7.43;;;10.60;99.90;;;;;;5091791;28;20040;-58
2023/06/04 05:20:05;;;;;;;14.80;7.90;;;10.80;99.90;;;;;;5092408;28;20044;-58
2023/06/04 05:22:32;;;;;;;14.52;8.48;;;10.90;99.90;;;;;;5091354;28;20086;-57
2023/06/04 05:24:59;;;;;;;15.25;8.85;;;11.00;99.90;;;;;;5091286;28;20047;-58
2023/06/04 05:27:25;;;;;;;15.43;8.57;;;11.20;99.90;;;;;;5089879;28;20127;-58
2023/06/04 05:29:51;;;;;;;17.85;7.80;;;11.40;99.90;;;;;;5092491;28;20108;-58
2023/06/04 05:32:17;;;;;;;17.45;7.90;;;11.50;99.90;;;;;;5091853;28;20040;-58
2023/06/04 05:34:43;;;;;;;15.77;7.57;;;11.70;99.90;;;;;;5091290;28;20055;-60
2023/06/04 05:37:09;;;;;;;12.90;7.05;;;11.80;99.90;;;;;;5072840;28;20043;-60
2023/06/04 05:39:35;;;;;;;13.27;6.93;;;11.70;99.90;;;;;;5091172;28;20061;-60
2023/06/04 05:42:01;;;;;;;14.95;6.82;;;11.80;99.90;;;;;;5091209;28;20051;-60
2023/06/04 05:44:27;;;;;;;15.48;8.70;;;11.90;99.90;;;;;;5091904;28;20036;-60
2023/06/04 05:46:53;;;;;;;14.30;6.15;;;12.20;99.90;;;;;;5058435;28;20063;-60
2023/06/04 05:49:19;;;;;;;12.90;5.95;;;12.30;99.90;;;;;;5092412;28;20042;-60
2023/06/04 05:51:45;;;;;;;17.35;6.38;;;12.20;99.90;;;;;;5092505;28;20415;-60
2023/06/04 05:54:11;;;;;;;13.50;6.40;;;12.20;99.90;;;;;;5091867;28;20035;-59
2023/06/04 05:56:37;;;;;;;14.00;5.70;;;13.50;99.90;;;;;;5093292;28;20707;-60
2023/06/04 05:59:02;;;;;;;12.88;5.65;;;12.50;99.90;;;;;;5092571;28;20050;-60
2023/06/04 06:01:29;;;;;;;15.50;6.40;;;12.60;99.90;;;;;;5091987;28;20891;-60
2023/06/04 06:03:55;;;;;;;16.23;5.80;;;12.60;99.90;;;;;;5092706;28;20511;-60
2023/06/04 06:06:21;;;;;;;13.00;6.20;;;12.60;99.90;;;;;;5092317;28;20047;-60
2023/06/04 06:08:46;;;;;;;18.13;6.57;;;12.80;99.90;;;;;;5090986;28;20036;-60
2023/06/04 06:11:12;;;;;;;13.13;5.40;;;12.90;99.90;;;;;;5090390;28;20117;-60
2023/06/04 06:13:38;;;;;;;14.75;5.05;;;13.00;99.90;;;;;;5075042;28;20047;-59
2023/06/04 06:16:04;;;;;;;14.32;4.95;;;12.10;99.90;;;;;;5091278;28;20116;-60
2023/06/04 06:18:30;;;;;;;13.07;4.80;;;13.70;99.90;;;;;;5092071;28;20044;-61
2023/06/04 06:20:56;;;;;;;15.48;4.53;;;14.10;99.90;;;;;;5089781;28;20040;-61
2023/06/04 06:23:23;;;;;;;12.52;4.65;;;14.00;99.90;;;;;;5091985;28;20337;-61
2023/06/04 06:25:51;;;;;;;9.27;3.65;;;14.30;99.90;;;;;;5090691;28;20067;-60
2023/06/04 06:28:18;;;;;;;16.55;4.40;;;14.40;99.90;;;;;;5091777;28;20047;-60
2023/06/04 06:30:44;;;;;;;11.25;3.75;;;14.50;99.90;;;;;;5072351;28;20043;-60
2023/06/04 06:33:10;;;;;;;15.60;4.65;;;14.60;99.90;;;;;;5090919;28;20357;-57
2023/06/04 06:35:36;;;;;;;15.27;5.10;;;14.60;99.90;;;;;;5089707;28;20031;-60
2023/06/04 06:38:01;;;;;;;11.90;3.50;;;14.60;99.90;;;;;;5090503;28;20133;-59
2023/06/04 06:40:30;;;;;;;9.75;3.08;;;14.50;99.90;;;;;;5089834;28;20055;-59
2023/06/04 06:42:56;;;;;;;12.20;3.05;;;14.60;99.90;;;;;;5091424;28;20461;-59
2023/06/04 06:45:21;;;;;;;11.63;3.70;;;14.80;99.90;;;;;;5089447;28;20059;-60
2023/06/04 06:47:47;;;;;;;11.68;3.00;;;14.80;99.90;;;;;;5091513;28;20082;-58
2023/06/04 06:50:14;;;;;;;10.57;2.60;;;15.20;99.90;;;;;;5089564;28;20047;-58
2023/06/04 06:52:39;;;;;;;8.38;2.70;;;15.90;99.90;;;;;;5090476;28;20500;-59
2023/06/04 06:55:06;;;;;;;12.10;2.92;;;16.30;99.90;;;;;;5088911;28;20066;-59
2023/06/04 06:57:33;;;;;;;11.38;2.50;;;16.20;99.90;;;;;;5091996;28;20040;-58
2023/06/04 06:59:59;;;;;;;9.82;2.80;;;16.20;99.90;;;;;;5047748;28;20744;-58
2023/06/04 07:02:25;;;;;;;12.85;2.70;;;16.20;99.90;;;;;;5089094;28;20061;-58
2023/06/04 07:04:50;;;;;;;9.52;2.35;;;16.60;99.90;;;;;;5089167;28;21364;-59
2023/06/04 07:07:17;;;;;;;9.82;2.80;;;16.80;99.90;;;;;;5071230;28;20072;-58
2023/06/04 07:09:42;;;;;;;10.02;2.78;;;17.00;99.90;;;;;;5089325;28;20702;-59
2023/06/04 07:12:08;;;;;;;9.90;2.85;;;17.10;99.90;;;;;;5070596;28;20048;-58
2023/06/04 07:14:34;;;;;;;9.77;2.65;;;17.20;99.90;;;;;;5072804;28;20064;-58
2023/06/04 07:17:00;;;;;;;13.45;3.22;;;17.60;99.90;;;;;;5091075;28;20115;-57
2023/06/04 07:19:26;;;;;;;7.95;2.30;;;18.20;99.90;;;;;;5088462;28;20521;-58
2023/06/04 07:21:55;;;;;;;8.00;2.00;;;18.90;99.90;;;;;;5089586;28;20143;-59
2023/06/04 07:24:21;;;;;;;11.48;2.47;;;19.60;99.90;;;;;;5087813;28;20891;-59
2023/06/04 07:26:47;;;;;;;10.60;2.90;;;20.30;99.90;;;;;;5089414;28;20042;-58
2023/06/04 07:29:13;;;;;;;7.35;2.75;;;20.90;99.90;;;;;;5088381;28;20036;-59
2023/06/04 07:31:41;;;;;;;8.63;2.65;;;21.20;99.90;;;;;;5089470;28;20052;-59
2023/06/04 07:34:07;;;;;;;8.93;2.70;;;21.60;99.90;;;;;;5090053;28;20122;-59
2023/06/04 07:36:33;;;;;;;9.02;3.17;;;21.80;99.90;;;;;;5088994;28;20040;-59
2023/06/04 07:38:59;;;;;;;9.63;2.65;;;22.00;99.90;;;;;;5090367;28;20755;-58
2023/06/04 07:41:28;;;;;;;8.52;2.30;;;22.50;99.90;;;;;;5089323;28;20042;-58
2023/06/04 07:43:54;;;;;;;9.55;2.55;;;22.40;99.90;;;;;;5091836;28;20071;-59
2023/06/04 07:46:20;;;;;;;10.38;2.80;;;22.20;99.90;;;;;;5091340;28;20130;-59
2023/06/04 07:48:45;;;;;;;7.72;2.72;;;22.10;99.90;;;;;;5071892;28;20059;-58
2023/06/04 07:51:13;;;;;;;10.15;2.17;;;22.10;99.90;;;;;;5093620;28;20055;-58
2023/06/04 07:53:39;;;;;;;10.70;2.55;;;22.30;99.90;;;;;;5075062;28;20051;-58
2023/06/04 07:56:05;;;;;;;6.30;2.13;;;23.00;99.90;;;;;;5095266;28;20957;-58
2023/06/04 07:58:32;;;;;;;10.00;2.35;;;23.10;99.90;;;;;;5094555;28;20283;-59
2023/06/04 08:00:57;;;;;;;6.15;2.17;;;23.50;99.90;;;;;;5094367;28;20510;-58
2023/06/04 08:03:24;;;;;;;5.32;2.00;;;23.60;99.90;;;;;;5074957;28;20134;-58
2023/06/04 08:05:50;;;;;;;7.20;2.53;;;23.70;99.90;;;;;;5094978;28;20448;-58
2023/06/04 08:08:16;;;;;;;7.80;2.42;;;23.40;99.90;;;;;;5074899;28;20044;-57
2023/06/04 08:10:42;;;;;;;7.13;2.25;;;23.20;99.90;;;;;;5091886;28;20066;-58
2023/06/04 08:13:09;;;;;;;7.78;2.20;;;23.50;99.90;;;;;;5093032;28;20400;-58
2023/06/04 08:15:35;;;;;;;12.80;3.80;;;22.90;99.90;;;;;;5095036;28;20186;-58
2023/06/04 08:18:01;;;;;;;6.43;2.10;;;23.30;99.90;;;;;;5093556;28;20559;-58
2023/06/04 08:20:26;;;;;;;7.57;2.17;;;23.70;99.90;;;;;;5091861;28;20081;-58
2023/06/04 08:22:52;;;;;;;6.65;1.90;;;23.70;99.90;;;;;;5092005;28;20068;-58
2023/06/04 08:25:18;;;;;;;8.20;2.38;;;23.50;99.90;;;;;;5074607;28;20066;-58
2023/06/04 08:27:44;;;;;;;9.38;2.70;;;23.20;99.90;;;;;;5073381;28;20051;-58
2023/06/04 08:30:10;;;;;;;5.13;1.75;;;22.70;99.90;;;;;;5092360;28;20035;-58
2023/06/04 08:32:36;;;;;;;5.72;1.95;;;23.10;99.90;;;;;;5074375;28;20504;-58
2023/06/04 08:35:01;;;;;;;6.22;2.28;;;23.10;99.90;;;;;;5091400;28;20050;-58
2023/06/04 08:37:28;;;;;;;6.30;1.88;;;23.00;99.90;;;;;;5092301;28;20408;-58
2023/06/04 08:39:53;;;;;;;6.63;1.75;;;22.10;99.90;;;;;;5092159;28;20055;-58
2023/06/04 08:42:26;;;;;;;5.88;2.08;;;22.70;99.90;;;;;;5093291;28;20043;-58
2023/06/04 08:44:55;;;;;;;5.00;1.80;;;22.30;99.90;;;;;;5094086;28;20843;-57
2023/06/04 08:47:25;;;;;;;8.88;2.35;;;22.60;99.90;;;;;;5093449;28;20136;-58
2023/06/04 08:49:55;;;;;;;6.25;1.60;;;22.60;99.90;;;;;;5090025;28;20512;-57
2023/06/04 08:52:21;;;;;;;7.50;1.90;;;22.70;99.90;;;;;;5074170;28;20087;-57
2023/06/04 08:54:51;;;;;;;8.23;1.75;;;22.10;99.90;;;;;;5073923;28;20619;-58
2023/06/04 08:57:18;;;;;;;49.90;5.32;;;21.80;99.90;;;;;;5091076;28;20051;-58
2023/06/04 08:59:46;;;;;;;14.20;2.60;;;22.00;99.90;;;;;;5092336;28;20097;-58
2023/06/04 09:02:14;;;;;;;10.75;2.13;;;22.00;99.90;;;;;;5074286;28;20107;-58
2023/06/04 09:04:40;;;;;;;7.03;2.03;;;21.80;99.90;;;;;;5075050;28;20048;-57
2023/06/04 09:07:08;;;;;;;13.93;3.03;;;21.70;99.90;;;;;;5093349;28;20412;-57
2023/06/04 09:09:38;;;;;;;5.97;2.05;;;21.80;99.90;;;;;;5074253;28;20372;-58
2023/06/04 09:12:08;;;;;;;6.93;1.90;;;21.60;99.90;;;;;;5092409;28;20047;-57
2023/06/04 09:14:34;;;;;;;5.28;1.67;;;21.90;99.90;;;;;;5095734;28;20046;-57
2023/06/04 09:17:00;;;;;;;6.22;1.88;;;21.60;99.90;;;;;;5092714;28;20039;-57
2023/06/04 09:19:25;;;;;;;6.45;1.90;;;21.40;99.90;;;;;;5090914;28;20043;-58
2023/06/04 09:21:52;;;;;;;6.15;2.20;;;21.00;99.90;;;;;;5093608;28;20074;-57
2023/06/04 09:24:22;;;;;;;7.30;2.28;;;20.40;99.90;;;;;;5091358;28;20043;-58
2023/06/04 09:26:48;;;;;;;6.65;2.10;;;20.10;99.90;;;;;;5093519;28;20040;-57
2023/06/04 09:29:15;;;;;;;5.53;1.55;;;19.80;99.90;;;;;;5091820;28;20039;-57
2023/06/04 09:31:41;;;;;;;4.57;1.63;;;19.50;99.90;;;;;;5094027;28;20039;-57
2023/06/04 09:34:07;;;;;;;6.95;1.92;;;21.20;99.90;;;;;;5090692;28;20126;-57
2023/06/04 09:36:35;;;;;;;5.25;1.73;;;19.20;99.90;;;;;;5071979;28;20031;-57
2023/06/04 09:39:03;;;;;;;4.03;1.50;;;19.20;99.90;;;;;;5091241;28;20097;-57
2023/06/04 09:41:29;;;;;;;3.53;1.40;;;19.10;99.90;;;;;;5074929;28;20058;-58
2023/06/04 09:44:02;;;;;;;4.13;1.42;;;18.90;99.90;;;;;;5068935;28;20504;-57
2023/06/04 09:46:29;;;;;;;5.43;1.60;;;19.00;99.90;;;;;;5091956;28;20048;-57
2023/06/04 09:49:03;;;;;;;7.78;2.55;;;19.20;99.90;;;;;;5090353;28;20048;-58
2023/06/04 09:51:30;;;;;;;3.60;1.42;;;19.10;99.90;;;;;;5091192;28;20043;-57
2023/06/04 09:54:03;;;;;;;4.43;1.30;;;19.00;99.90;;;;;;5091493;28;20278;-58
2023/06/04 09:56:29;;;;;;;7.18;1.88;;;19.40;99.90;;;;;;5090481;28;20044;-58
2023/06/04 09:59:00;;;;;;;5.43;1.38;;;19.40;99.90;;;;;;5091381;28;20043;-58
2023/06/04 10:01:27;;;;;;;5.90;1.83;;;19.60;99.90;;;;;;5073454;28;20123;-57
2023/06/04 10:03:56;;;;;;;7.45;2.15;;;19.60;99.90;;;;;;5091969;28;20035;-58
2023/06/04 10:06:23;;;;;;;4.38;1.65;;;19.50;99.90;;;;;;5069910;28;20040;-56
2023/06/04 10:08:50;;;;;;;7.55;1.23;;;19.80;99.90;;;;;;5072059;28;21208;-57
2023/06/04 10:11:30;;;;;;;6.60;1.80;;;19.60;99.90;;;;;;5089214;28;20941;-57
2023/06/04 10:14:07;;;;;;;4.38;1.50;;;19.60;99.90;;;;;;5090137;28;20106;-58
2023/06/04 10:16:33;;;;;;;5.47;1.73;;;19.70;99.90;;;;;;5091707;28;20465;-58
2023/06/04 10:19:00;;;;;;;7.93;2.03;;;19.90;99.90;;;;;;5091360;28;20657;-58
2023/06/04 10:21:26;;;;;;;4.93;1.45;;;19.90;99.90;;;;;;5090571;28;20043;-57
2023/06/04 10:23:52;;;;;;;5.63;1.90;;;20.00;99.90;;;;;;5091469;28;20043;-57
2023/06/04 10:26:18;;;;;;;4.70;1.83;;;19.80;99.90;;;;;;5090321;28;20043;-57
2023/06/04 10:28:44;;;;;;;3.78;1.48;;;20.10;99.90;;;;;;5090111;28;20054;-58
2023/06/04 10:31:11;;;;;;;9.63;1.88;;;20.10;99.90;;;;;;5089982;28;20039;-57
2023/06/04 10:33:37;;;;;;;6.22;1.75;;;20.20;99.90;;;;;;5089646;28;20047;-57
2023/06/04 10:36:20;;;;;;;5.35;1.67;;;20.20;99.90;;;;;;5072803;28;20043;-58
2023/06/04 10:38:55;;;;;;;5.88;1.50;;;20.20;99.90;;;;;;5091866;28;20039;-57
2023/06/04 10:41:22;;;;;;;3.83;1.60;;;20.10;99.90;;;;;;5091828;28;20042;-57
2023/06/04 10:43:49;;;;;;;6.15;1.80;;;20.20;99.90;;;;;;5090145;28;20104;-57
2023/06/04 10:46:19;;;;;;;8.18;1.30;;;20.10;99.90;;;;;;5090073;28;20055;-58
2023/06/04 10:48:54;;;;;;;5.45;1.30;;;20.40;99.90;;;;;;5090726;28;20075;-57
2023/06/04 10:51:40;;;;;;;6.35;1.80;;;20.50;99.90;;;;;;5072120;28;20461;-57
2023/06/04 10:54:06;;;;;;;3.58;1.30;;;20.00;99.90;;;;;;5088547;28;20443;-57
2023/06/04 10:56:37;;;;;;;5.00;1.50;;;19.90;99.90;;;;;;5087832;28;20518;-58
2023/06/04 10:59:17;;;;;;;3.47;1.27;;;20.10;99.90;;;;;;5091160;28;20047;-57
2023/06/04 11:01:43;;;;;;;4.55;1.15;;;20.10;99.90;;;;;;5089428;28;20401;-57
2023/06/04 11:04:20;;;;;;;4.43;1.55;;;20.30;99.90;;;;;;5089988;28;20079;-58
2023/06/04 11:06:46;;;;;;;8.45;1.70;;;20.00;99.90;;;;;;5089070;28;20104;-56
2023/06/04 11:09:18;;;;;;;4.18;1.35;;;20.00;99.90;;;;;;5071785;28;20043;-57
2023/06/04 11:11:44;;;;;;;3.33;1.35;;;20.00;99.90;;;;;;5090440;28;20567;-58
2023/06/04 11:14:15;;;;;;;4.57;1.48;;;19.90;99.90;;;;;;5091207;28;20050;-57
2023/06/04 11:16:40;;;;;;;4.75;1.48;;;19.70;99.90;;;;;;5089797;28;20576;-58
2023/06/04 11:19:06;;;;;;;5.70;1.70;;;19.60;99.90;;;;;;5089606;28;20051;-57
2023/06/04 11:21:36;;;;;;;6.65;1.42;;;20.00;99.90;;;;;;5089739;28;20105;-57
2023/06/04 11:24:03;;;;;;;4.35;1.60;;;20.10;99.90;;;;;;5090856;28;20123;-57
2023/06/04 11:26:33;;;;;;;3.40;1.30;;;19.90;99.90;;;;;;5094264;28;20038;-57
2023/06/04 11:28:59;;;;;;;3.50;1.30;;;19.90;99.90;;;;;;5093932;28;20095;-57
2023/06/04 11:31:25;;;;;;;6.85;1.77;;;20.00;99.90;;;;;;5097136;28;20144;-57
2023/06/04 11:33:51;;;;;;;5.43;1.50;;;20.40;99.90;;;;;;5095562;28;20130;-57
2023/06/04 11:36:30;;;;;;;5.68;2.05;;;20.30;99.90;;;;;;5094395;28;20180;-58
2023/06/04 11:39:06;;;;;;;5.75;1.80;;;20.40;99.90;;;;;;5093865;28;20039;-57
2023/06/04 11:41:35;;;;;;;6.05;2.08;;;20.60;99.90;;;;;;5096260;28;20040;-57
2023/06/04 11:44:05;;;;;;;10.57;2.50;;;20.30;99.90;;;;;;5095193;28;20043;-57
2023/06/04 11:46:52;;;;;;;6.45;2.20;;;20.30;99.90;;;;;;5096123;28;20131;-58
2023/06/04 11:49:18;;;;;;;9.65;2.33;;;20.30;99.90;;;;;;5093529;28;20557;-57
2023/06/04 11:51:52;;;;;;;6.50;2.40;;;20.30;99.90;;;;;;5094458;28;20054;-57
2023/06/04 11:54:20;;;;;;;6.80;2.42;;;20.20;99.90;;;;;;5075696;28;20481;-57
2023/06/04 11:56:48;;;;;;;6.13;2.20;;;20.30;99.90;;;;;;5095171;28;20039;-58
2023/06/04 11:59:16;;;;;;;5.93;2.17;;;20.50;99.90;;;;;;5093410;28;20400;-58
2023/06/04 12:01:43;;;;;;;4.85;1.75;;;20.30;99.90;;;;;;5094784;28;20038;-58
2023/06/04 12:04:16;;;;;;;6.10;1.90;;;20.10;99.90;;;;;;5078590;28;20051;-58
2023/06/04 12:06:58;;;;;;;4.30;1.58;;;20.10;99.90;;;;;;5094616;28;20527;-57
2023/06/04 12:09:27;;;;;;;7.22;3.30;;;20.10;99.90;;;;;;5094106;28;20047;-58
2023/06/04 12:11:59;;;;;;;5.97;2.00;;;20.10;99.90;;;;;;5093982;28;20067;-57
2023/06/04 12:14:25;;;;;;;4.80;2.03;;;20.10;99.90;;;;;;5075372;28;20360;-57
2023/06/04 12:17:02;;;;;;;5.65;2.00;;;20.20;99.90;;;;;;5095223;28;20039;-57
2023/06/04 12:19:28;;;;;;;5.55;1.83;;;20.30;99.90;;;;;;5093101;28;20603;-57
2023/06/04 12:22:04;;;;;;;4.10;1.48;;;20.20;99.90;;;;;;5093770;28;20130;-57
2023/06/04 12:24:32;;;;;;;5.65;1.70;;;20.40;99.90;;;;;;5093116;28;20567;-57
2023/06/04 12:27:05;;;;;;;5.32;1.60;;;20.40;99.90;;;;;;5093838;28;20085;-57
2023/06/04 12:29:31;;;;;;;5.97;1.77;;;20.00;99.90;;;;;;5094244;28;20058;-57
2023/06/04 12:32:13;;;;;;;5.25;1.85;;;20.00;99.90;;;;;;5093653;28;20044;-58
2023/06/04 12:34:42;;;;;;;;;;;19.80;99.90;;;;;;5075882;28;20107;-57
2023/06/04 12:37:08;;;;;;;7.80;2.40;;;19.50;99.90;;;;;;5091236;28;19923;-57
2023/06/04 12:39:36;;;;;;;7.68;2.30;;;19.70;99.90;;;;;;5093583;28;20039;-58
2023/06/04 12:42:06;;;;;;;7.88;2.08;;;19.70;99.90;;;;;;5075682;28;20052;-58
2023/06/04 12:44:32;;;;;;;5.82;1.70;;;19.80;99.90;;;;;;5092275;28;20675;-58
2023/06/04 12:46:58;;;;;;;6.68;1.85;;;20.00;99.90;;;;;;5092715;28;20056;-57
2023/06/04 12:49:24;;;;;;;5.20;1.60;;;19.70;99.90;;;;;;5072086;28;20497;-59